createdAt,value
2023-02-12T00:01:12.534Z,41.40
2023-02-12T00:03:40.736Z,44.70
2023-02-12T00:06:09.231Z,40.30
2023-02-12T00:08:36.968Z,44.47
2023-02-12T00:11:15.273Z,43.73
2023-02-12T00:13:42.180Z,42.60
2023-02-12T00:16:14.807Z,43.43
2023-02-12T00:18:42.727Z,41.50
2023-02-12T00:21:10.214Z,43.23
2023-02-12T00:23:39.028Z,45.03
2023-02-12T00:26:11.588Z,42.87
2023-02-12T00:28:39.031Z,43.17
2023-02-12T00:31:12.073Z,42.03
2023-02-12T00:33:40.154Z,41.17
2023-02-12T00:36:08.096Z,41.80
2023-02-12T00:38:35.660Z,46.20
2023-02-12T00:41:02.634Z,43.50
2023-02-12T00:43:29.582Z,43.20
2023-02-12T00:45:56.836Z,44.57
2023-02-12T00:48:23.869Z,44.80
2023-02-12T00:50:51.229Z,46.10
2023-02-12T00:53:18.154Z,45.40
2023-02-12T00:55:45.500Z,43.13
2023-02-12T00:58:12.381Z,45.07
2023-02-12T01:00:39.363Z,44.77
2023-02-12T01:03:06.467Z,43.67
2023-02-12T01:05:33.394Z,42.47
2023-02-12T01:08:00.726Z,44.87
2023-02-12T01:10:27.943Z,42.43
2023-02-12T01:12:55.337Z,43.60
2023-02-12T01:15:22.600Z,43.43
2023-02-12T01:17:52.554Z,43.40
2023-02-12T01:20:22.497Z,42.23
2023-02-12T01:22:49.641Z,40.67
2023-02-12T01:25:18.745Z,42.63
2023-02-12T01:27:47.281Z,43.43
2023-02-12T01:30:16.149Z,43.27
2023-02-12T01:32:44.123Z,41.77
2023-02-12T01:35:11.045Z,40.80
2023-02-12T01:37:38.655Z,43.30
2023-02-12T01:40:08.856Z,42.27
2023-02-12T01:42:35.792Z,43.30
2023-02-12T01:45:45.396Z,41.77
2023-02-12T01:48:14.223Z,42.17
2023-02-12T01:50:44.224Z,43.20
2023-02-12T01:53:11.397Z,41.50
2023-02-12T01:55:38.417Z,41.70
2023-02-12T01:58:05.921Z,42.30
2023-02-12T02:00:33.494Z,43.90
2023-02-12T02:03:02.037Z,42.63
2023-02-12T02:05:49.822Z,38.90
2023-02-12T02:08:17.189Z,39.40
2023-02-12T02:10:44.172Z,42.07
2023-02-12T02:13:49.954Z,42.60
2023-02-12T02:16:26.111Z,42.30
2023-02-12T02:19:02.624Z,41.23
2023-02-12T02:22:10.593Z,40.00
2023-02-12T02:25:15.079Z,41.33
2023-02-12T02:28:31.252Z,40.27
2023-02-12T02:31:12.234Z,40.97
2023-02-12T02:34:27.108Z,41.47
2023-02-12T02:37:26.397Z,41.60
2023-02-12T02:40:01.777Z,41.43
2023-02-12T02:42:58.378Z,43.07
2023-02-12T02:45:28.788Z,44.63
2023-02-12T02:48:12.140Z,39.80
2023-02-12T02:50:43.243Z,37.93
2023-02-12T02:53:26.723Z,38.90
2023-02-12T02:55:57.249Z,38.10
2023-02-12T02:58:31.549Z,41.50
2023-02-12T03:01:13.975Z,37.27
2023-02-12T03:03:57.729Z,42.00
2023-02-12T03:06:45.143Z,38.30
2023-02-12T03:09:42.248Z,41.80
2023-02-12T03:12:16.409Z,39.17
2023-02-12T03:14:48.329Z,39.30
2023-02-12T03:17:22.434Z,38.87
2023-02-12T03:19:58.293Z,37.73
2023-02-12T03:22:31.543Z,38.23
2023-02-12T03:25:05.738Z,38.67
2023-02-12T03:27:37.630Z,40.03
2023-02-12T03:30:05.679Z,40.97
2023-02-12T03:32:46.662Z,40.17
2023-02-12T03:35:42.904Z,38.83
2023-02-12T03:38:34.468Z,38.60
2023-02-12T03:41:14.431Z,40.30
2023-02-12T03:43:56.628Z,35.80
2023-02-12T03:46:34.178Z,38.00
2023-02-12T03:49:20.404Z,38.97
2023-02-12T03:51:47.419Z,40.10
2023-02-12T03:54:18.611Z,38.50
2023-02-12T03:57:08.137Z,37.23
2023-02-12T03:59:36.934Z,39.27
2023-02-12T04:02:04.256Z,38.23
2023-02-12T04:04:31.875Z,36.30
2023-02-12T04:06:59.062Z,38.60
2023-02-12T04:09:27.955Z,39.30
2023-02-12T04:12:24.216Z,40.60
2023-02-12T04:15:17.119Z,38.47
2023-02-12T04:18:15.209Z,37.87
2023-02-12T04:20:53.674Z,38.60
2023-02-12T04:24:08.590Z,37.77
2023-02-12T04:27:12.733Z,39.33
2023-02-12T04:30:02.863Z,39.97
2023-02-12T04:32:48.209Z,37.70
2023-02-12T04:35:36.786Z,39.20
2023-02-12T04:38:36.604Z,37.63
2023-02-12T04:41:06.861Z,36.00
2023-02-12T04:43:36.970Z,37.20
2023-02-12T04:46:08.556Z,38.10
2023-02-12T04:48:43.896Z,40.20
2023-02-12T04:51:10.851Z,35.73
2023-02-12T04:53:38.447Z,37.27
2023-02-12T04:56:06.014Z,36.93
2023-02-12T04:58:32.944Z,36.77
2023-02-12T05:01:00.227Z,38.33
2023-02-12T05:03:27.129Z,38.63
2023-02-12T05:05:54.381Z,36.37
2023-02-12T05:08:21.643Z,37.17
2023-02-12T05:10:48.450Z,35.40
2023-02-12T05:13:15.294Z,37.10
2023-02-12T05:15:42.171Z,38.27
2023-02-12T05:18:09.330Z,34.43
2023-02-12T05:20:36.166Z,34.23
2023-02-12T05:23:03.081Z,38.60
2023-02-12T05:25:32.021Z,36.83
2023-02-12T05:27:58.941Z,35.63
2023-02-12T05:30:25.924Z,39.13
2023-02-12T05:32:52.817Z,37.10
2023-02-12T05:35:19.681Z,36.47
2023-02-12T05:37:46.536Z,34.50
2023-02-12T05:40:14.273Z,36.00
2023-02-12T05:42:41.175Z,35.33
2023-02-12T05:45:08.560Z,37.93
2023-02-12T05:47:35.424Z,38.37
2023-02-12T05:50:02.300Z,36.93
2023-02-12T05:52:29.181Z,35.93
2023-02-12T05:54:56.016Z,37.97
2023-02-12T05:57:22.898Z,36.30
2023-02-12T05:59:49.793Z,37.13
2023-02-12T06:02:16.750Z,37.90
2023-02-12T06:04:43.644Z,35.47
2023-02-12T06:07:10.533Z,36.67
2023-02-12T06:09:37.831Z,35.90
2023-02-12T06:12:04.986Z,35.30
2023-02-12T06:14:32.176Z,36.60
2023-02-12T06:16:59.164Z,37.37
2023-02-12T06:19:26.177Z,34.90
2023-02-12T06:21:53.092Z,35.23
2023-02-12T06:24:19.990Z,37.27
2023-02-12T06:26:50.467Z,35.17
2023-02-12T06:29:18.164Z,35.93
2023-02-12T06:31:45.176Z,35.37
2023-02-12T06:34:14.479Z,32.77
2023-02-12T06:36:44.946Z,38.23
2023-02-12T06:39:15.877Z,37.30
2023-02-12T06:41:43.967Z,36.73
2023-02-12T06:44:12.836Z,35.80
2023-02-12T06:46:39.919Z,36.00
2023-02-12T06:49:07.000Z,35.87
2023-02-12T06:51:33.941Z,35.17
2023-02-12T06:54:00.767Z,35.73
2023-02-12T06:56:27.828Z,34.33
2023-02-12T06:58:57.059Z,35.93
2023-02-12T07:01:27.658Z,34.03
2023-02-12T07:04:00.594Z,34.97
2023-02-12T07:06:28.963Z,34.83
2023-02-12T07:08:57.232Z,37.53
2023-02-12T07:11:28.680Z,35.90
2023-02-12T07:13:55.631Z,36.83
2023-02-12T07:16:23.338Z,36.33
2023-02-12T07:18:50.499Z,36.07
2023-02-12T07:21:18.057Z,34.97
2023-02-12T07:23:51.250Z,34.10
2023-02-12T07:26:19.705Z,33.27
2023-02-12T07:28:46.553Z,33.47
2023-02-12T07:31:22.286Z,35.57
2023-02-12T07:33:50.203Z,37.00
2023-02-12T07:36:19.461Z,40.47
2023-02-12T07:38:47.461Z,33.30
2023-02-12T07:41:20.386Z,33.50
2023-02-12T07:43:49.250Z,34.70
2023-02-12T07:46:22.429Z,32.57
2023-02-12T07:48:51.510Z,32.63
2023-02-12T07:51:19.442Z,34.23
2023-02-12T07:53:46.563Z,35.37
2023-02-12T07:56:19.773Z,33.33
2023-02-12T07:58:48.166Z,34.70
2023-02-12T08:01:24.001Z,32.03
2023-02-12T08:03:51.633Z,31.70
2023-02-12T08:06:24.858Z,32.50
2023-02-12T08:08:53.381Z,35.50
2023-02-12T08:11:20.893Z,32.73
2023-02-12T08:13:47.971Z,34.00
2023-02-12T08:16:17.901Z,31.07
2023-02-12T08:18:45.061Z,32.47
2023-02-12T08:21:14.357Z,31.97
2023-02-12T08:23:41.719Z,31.20
2023-02-12T08:26:09.992Z,33.50
2023-02-12T08:28:39.216Z,31.70
2023-02-12T08:31:11.120Z,32.50
2023-02-12T08:33:38.063Z,29.50
2023-02-12T08:36:07.750Z,32.80
2023-02-12T08:38:34.642Z,32.17
2023-02-12T08:41:10.297Z,30.20
2023-02-12T08:43:39.658Z,30.13
2023-02-12T08:46:09.804Z,29.57
2023-02-12T08:48:37.177Z,31.53
2023-02-12T08:51:19.293Z,27.70
2023-02-12T08:53:48.577Z,28.87
2023-02-12T08:56:17.892Z,28.00
2023-02-12T08:58:45.548Z,28.50
2023-02-12T09:01:18.611Z,28.40
2023-02-12T09:03:46.640Z,27.03
2023-02-12T09:06:15.075Z,27.47
2023-02-12T09:08:42.403Z,28.53
2023-02-12T09:11:12.765Z,27.13
2023-02-12T09:13:41.032Z,28.07
2023-02-12T09:16:08.345Z,26.20
2023-02-12T09:18:36.193Z,29.20
2023-02-12T09:21:10.015Z,26.93
2023-02-12T09:23:37.901Z,26.70
2023-02-12T09:26:07.043Z,28.97
2023-02-12T09:28:34.956Z,25.77
2023-02-12T09:31:06.880Z,25.93
2023-02-12T09:33:34.218Z,25.97
2023-02-12T09:36:03.302Z,24.50
2023-02-12T09:38:30.440Z,23.83
2023-02-12T09:41:44.486Z,26.67
2023-02-12T09:44:33.541Z,26.97
2023-02-12T09:47:43.621Z,25.13
2023-02-12T09:50:51.483Z,25.27
2023-02-12T09:53:23.839Z,22.70
2023-02-12T09:55:50.980Z,25.10
2023-02-12T09:58:30.584Z,23.60
2023-02-12T10:00:57.993Z,22.97
2023-02-12T10:03:27.806Z,24.07
2023-02-12T10:06:01.873Z,24.30
2023-02-12T10:08:47.327Z,22.53
2023-02-12T10:11:53.273Z,24.50
2023-02-12T10:15:05.923Z,23.20
2023-02-12T10:18:25.218Z,21.90
2023-02-12T10:21:57.431Z,23.70
2023-02-12T10:25:26.144Z,24.07
2023-02-12T10:27:59.847Z,22.23
2023-02-12T10:30:57.921Z,23.40
2023-02-12T10:33:49.420Z,23.70
2023-02-12T10:36:42.077Z,21.30
2023-02-12T10:39:24.785Z,20.70
2023-02-12T10:42:18.477Z,22.83
2023-02-12T10:44:46.157Z,22.47
2023-02-12T10:47:21.852Z,21.97
2023-02-12T10:50:03.262Z,20.67
2023-02-12T10:52:54.974Z,21.83
2023-02-12T10:55:33.656Z,18.90
2023-02-12T10:58:02.720Z,18.37
2023-02-12T11:00:38.376Z,17.90
2023-02-12T11:03:35.132Z,17.27
2023-02-12T11:06:23.704Z,20.60
2023-02-12T11:08:50.660Z,16.57
2023-02-12T11:11:27.940Z,17.30
2023-02-12T11:14:07.485Z,18.00
2023-02-12T11:16:41.499Z,16.60
2023-02-12T11:19:20.768Z,15.97
2023-02-12T11:21:47.970Z,16.90
2023-02-12T11:24:33.274Z,14.90
2023-02-12T11:27:32.679Z,15.90
2023-02-12T11:30:26.543Z,16.30
2023-02-12T11:32:53.411Z,14.10
2023-02-12T11:35:27.070Z,14.23
2023-02-12T11:37:59.334Z,14.77
2023-02-12T11:40:29.801Z,13.57
2023-02-12T11:43:00.983Z,15.53
2023-02-12T11:45:52.663Z,13.83
2023-02-12T11:48:40.575Z,14.90
2023-02-12T11:51:18.342Z,14.40
2023-02-12T11:53:50.132Z,13.63
2023-02-12T11:56:17.690Z,13.00
2023-02-12T11:58:46.404Z,13.20
2023-02-12T12:01:19.747Z,12.63
2023-02-12T12:04:08.640Z,12.30
2023-02-12T12:06:41.374Z,12.70
2023-02-12T12:09:26.725Z,12.23
2023-02-12T12:12:27.637Z,12.87
2023-02-12T12:15:47.170Z,13.10
2023-02-12T12:19:18.669Z,14.57
2023-02-12T12:22:30.120Z,12.20
2023-02-12T12:25:36.622Z,13.73
2023-02-12T12:28:40.604Z,14.00
2023-02-12T12:31:20.570Z,12.37
2023-02-12T12:33:51.709Z,11.13
2023-02-12T12:37:03.302Z,11.33
2023-02-12T12:39:48.904Z,10.93
2023-02-12T12:42:46.594Z,11.30
2023-02-12T12:46:07.008Z,10.40
2023-02-12T12:49:07.460Z,11.30
2023-02-12T12:52:10.264Z,12.17
2023-02-12T12:55:12.730Z,11.70
2023-02-12T12:57:54.018Z,12.13
2023-02-12T13:00:41.172Z,11.20
2023-02-12T13:04:00.017Z,11.60
2023-02-12T13:06:36.129Z,12.60
2023-02-12T13:09:57.160Z,11.80
2023-02-12T13:12:59.639Z,14.60
2023-02-12T13:15:41.235Z,13.67
2023-02-12T13:18:26.536Z,13.30
2023-02-12T13:21:14.356Z,14.83
2023-02-12T13:24:43.447Z,13.27
2023-02-12T13:27:27.083Z,11.33
2023-02-12T13:30:25.344Z,12.67
2023-02-12T13:33:06.144Z,10.90
2023-02-12T13:35:35.165Z,11.80
2023-02-12T13:38:04.940Z,12.60
2023-02-12T13:40:32.015Z,11.30
2023-02-12T13:43:15.288Z,11.80
2023-02-12T13:46:12.222Z,11.60
2023-02-12T13:49:07.369Z,11.70
2023-02-12T13:51:53.569Z,11.90
2023-02-12T13:54:49.712Z,11.33
2023-02-12T13:57:19.305Z,11.97
2023-02-12T13:59:48.966Z,11.07
2023-02-12T14:02:29.726Z,12.27
2023-02-12T14:05:02.335Z,10.67
2023-02-12T14:07:44.589Z,11.20
2023-02-12T14:10:34.542Z,10.90
2023-02-12T14:13:18.351Z,11.13
2023-02-12T14:15:57.953Z,11.70
2023-02-12T14:18:36.819Z,11.77
2023-02-12T14:21:44.490Z,12.90
2023-02-12T14:24:46.547Z,12.57
2023-02-12T14:27:21.709Z,12.67
2023-02-12T14:30:29.557Z,12.33
2023-02-12T14:32:59.363Z,12.10
2023-02-12T14:35:40.408Z,10.77
2023-02-12T14:38:47.184Z,9.20
2023-02-12T14:41:42.945Z,8.87
2023-02-12T14:44:44.972Z,8.90
2023-02-12T14:47:36.184Z,9.23
2023-02-12T14:50:25.248Z,8.37
2023-02-12T14:52:58.695Z,9.13
2023-02-12T14:55:33.861Z,9.73
2023-02-12T14:58:07.223Z,9.80
2023-02-12T15:00:40.261Z,10.27
2023-02-12T15:03:39.120Z,11.40
2023-02-12T15:06:12.471Z,11.97
2023-02-12T15:09:03.129Z,12.77
2023-02-12T15:11:44.811Z,12.87
2023-02-12T15:14:28.393Z,14.03
2023-02-12T15:17:11.453Z,14.30
2023-02-12T15:19:59.974Z,16.83
2023-02-12T15:22:42.058Z,14.93
2023-02-12T15:25:41.385Z,17.33
2023-02-12T15:28:23.536Z,18.33
2023-02-12T15:30:51.789Z,18.90
2023-02-12T15:33:31.177Z,17.50
2023-02-12T15:35:59.124Z,17.80
2023-02-12T15:38:37.743Z,18.77
2023-02-12T15:41:06.605Z,19.20
2023-02-12T15:43:39.536Z,22.37
2023-02-12T15:46:15.493Z,20.23
2023-02-12T15:48:42.725Z,19.10
2023-02-12T15:51:33.200Z,22.40
2023-02-12T15:54:04.066Z,21.40
2023-02-12T15:56:33.824Z,21.73
2023-02-12T15:59:02.376Z,21.80
2023-02-12T16:01:32.206Z,20.00
2023-02-12T16:04:05.453Z,21.10
2023-02-12T16:06:35.284Z,22.60
2023-02-12T16:09:15.634Z,20.60
2023-02-12T16:11:45.583Z,21.23
2023-02-12T16:14:33.382Z,20.80
2023-02-12T16:17:00.973Z,21.07
2023-02-12T16:19:37.058Z,21.20
2023-02-12T16:22:14.407Z,21.50
2023-02-12T16:24:47.927Z,20.57
2023-02-12T16:27:20.656Z,20.67
2023-02-12T16:29:52.517Z,21.63
2023-02-12T16:32:37.722Z,19.30
2023-02-12T16:35:33.945Z,20.80
2023-02-12T16:38:23.147Z,19.60
2023-02-12T16:41:25.549Z,17.73
2023-02-12T16:44:24.507Z,15.87
2023-02-12T16:46:55.120Z,15.17
2023-02-12T16:49:24.079Z,14.03
2023-02-12T16:51:51.969Z,15.17
2023-02-12T16:54:35.718Z,15.10
2023-02-12T16:57:02.791Z,13.47
2023-02-12T16:59:30.659Z,14.43
2023-02-12T17:02:12.841Z,15.20
2023-02-12T17:04:39.883Z,14.17
2023-02-12T17:07:20.126Z,16.03
2023-02-12T17:09:47.073Z,14.57
2023-02-12T17:12:14.081Z,14.90
2023-02-12T17:14:41.129Z,13.83
2023-02-12T17:17:08.244Z,15.47
2023-02-12T17:19:35.173Z,14.47
2023-02-12T17:22:03.726Z,15.60
2023-02-12T17:24:34.321Z,14.80
2023-02-12T17:27:02.501Z,13.90
2023-02-12T17:29:31.266Z,16.40
2023-02-12T17:31:58.692Z,15.20
2023-02-12T17:34:27.515Z,14.30
2023-02-12T17:36:55.535Z,13.73
2023-02-12T17:39:22.471Z,14.93
2023-02-12T17:41:49.723Z,16.23
2023-02-12T17:44:16.796Z,15.37
2023-02-12T17:46:44.050Z,15.03
2023-02-12T17:49:11.009Z,15.33
2023-02-12T17:51:38.052Z,14.60
2023-02-12T17:54:05.735Z,15.00
2023-02-12T17:56:32.714Z,13.30
2023-02-12T17:59:00.348Z,14.17
2023-02-12T18:01:27.598Z,14.60
2023-02-12T18:03:57.403Z,13.63
2023-02-12T18:06:30.101Z,12.80
2023-02-12T18:08:58.373Z,12.23
2023-02-12T18:11:25.783Z,11.73
2023-02-12T18:13:56.961Z,11.07
2023-02-12T18:16:26.202Z,11.70
2023-02-12T18:18:53.309Z,12.43
2023-02-12T18:21:21.012Z,10.83
2023-02-12T18:23:48.078Z,12.03
2023-02-12T18:26:17.338Z,11.83
2023-02-12T18:28:45.046Z,12.27
2023-02-12T18:31:12.548Z,12.90
2023-02-12T18:33:39.827Z,11.67
2023-02-12T18:36:09.469Z,13.20
2023-02-12T18:38:38.450Z,13.90
2023-02-12T18:41:14.409Z,12.07
2023-02-12T18:43:43.447Z,13.30
2023-02-12T18:46:20.935Z,13.17
2023-02-12T18:48:48.586Z,12.70
2023-02-12T18:51:17.786Z,14.37
2023-02-12T18:53:44.840Z,13.80
2023-02-12T18:56:12.694Z,14.20
2023-02-12T18:58:40.352Z,12.90
2023-02-12T19:01:15.062Z,23.47
2023-02-12T19:03:42.408Z,13.83
2023-02-12T19:06:09.446Z,13.83
2023-02-12T19:08:36.396Z,12.53
2023-02-12T19:11:05.025Z,11.90
2023-02-12T19:13:31.897Z,13.60
2023-02-12T19:15:58.907Z,13.93
2023-02-12T19:18:25.824Z,14.40
2023-02-12T19:20:52.827Z,14.50
2023-02-12T19:23:19.825Z,15.47
2023-02-12T19:25:46.718Z,16.40
2023-02-12T19:28:13.700Z,12.93
2023-02-12T19:30:41.656Z,13.67
2023-02-12T19:33:08.812Z,14.90
2023-02-12T19:35:35.678Z,15.40
2023-02-12T19:38:03.104Z,15.67
2023-02-12T19:40:30.074Z,14.57
2023-02-12T19:42:57.049Z,16.07
2023-02-12T19:45:23.969Z,16.20
2023-02-12T19:47:51.839Z,16.70
2023-02-12T19:50:19.143Z,15.77
2023-02-12T19:52:46.409Z,16.23
2023-02-12T19:55:13.448Z,15.13
2023-02-12T19:57:41.175Z,15.20
2023-02-12T20:00:09.008Z,15.00
2023-02-12T20:02:36.073Z,15.80
2023-02-12T20:05:03.124Z,15.03
2023-02-12T20:07:30.087Z,15.13
2023-02-12T20:09:56.952Z,15.40
2023-02-12T20:12:23.967Z,15.13
2023-02-12T20:14:50.851Z,15.13
2023-02-12T20:17:18.673Z,13.43
2023-02-12T20:19:45.578Z,12.27
2023-02-12T20:22:12.505Z,14.10
2023-02-12T20:24:39.391Z,12.27
2023-02-12T20:27:06.308Z,11.07
2023-02-12T20:29:33.484Z,11.40
2023-02-12T20:32:00.504Z,11.37
2023-02-12T20:34:27.654Z,11.87
2023-02-12T20:36:54.567Z,13.40
2023-02-12T20:39:22.190Z,12.50
2023-02-12T20:41:49.888Z,11.97
2023-02-12T20:44:20.125Z,13.20
2023-02-12T20:46:49.087Z,13.00
2023-02-12T20:49:19.531Z,13.17
2023-02-12T20:51:49.964Z,12.57
2023-02-12T20:54:17.038Z,12.60
2023-02-12T20:56:44.028Z,13.90
2023-02-12T20:59:11.312Z,15.00
2023-02-12T21:01:41.275Z,13.17
2023-02-12T21:04:17.901Z,12.63
2023-02-12T21:06:45.736Z,12.70
2023-02-12T21:09:14.203Z,13.37
2023-02-12T21:11:43.057Z,14.23
2023-02-12T21:14:26.528Z,13.33
2023-02-12T21:16:55.519Z,14.70
2023-02-12T21:19:22.941Z,13.93
2023-02-12T21:21:49.889Z,12.87
2023-02-12T21:24:19.702Z,15.77
2023-02-12T21:26:46.632Z,14.60
2023-02-12T21:29:14.151Z,15.13
2023-02-12T21:31:46.236Z,15.70
2023-02-12T21:34:16.109Z,17.03
2023-02-12T21:36:47.573Z,16.03
2023-02-12T21:39:26.385Z,17.23
2023-02-12T21:42:02.976Z,16.57
2023-02-12T21:44:33.245Z,18.03
2023-02-12T21:47:00.250Z,16.10
2023-02-12T21:49:30.471Z,16.23
2023-02-12T21:52:02.271Z,17.00
2023-02-12T21:54:31.002Z,17.50
2023-02-12T21:56:58.384Z,18.00
2023-02-12T21:59:26.605Z,17.87
2023-02-12T22:01:58.696Z,16.37
2023-02-12T22:04:25.844Z,17.30
2023-02-12T22:06:53.996Z,17.80
2023-02-12T22:09:22.915Z,19.20
2023-02-12T22:11:52.426Z,17.77
2023-02-12T22:14:20.171Z,18.73
2023-02-12T22:16:47.783Z,18.60
2023-02-12T22:19:15.530Z,19.10
2023-02-12T22:21:42.762Z,19.07
2023-02-12T22:24:13.146Z,18.77
2023-02-12T22:26:40.285Z,20.17
2023-02-12T22:29:10.219Z,20.43
2023-02-12T22:31:39.174Z,19.73
2023-02-12T22:34:10.200Z,19.30
2023-02-12T22:36:40.783Z,18.73
2023-02-12T22:39:08.081Z,19.90
2023-02-12T22:41:35.244Z,20.50
2023-02-12T22:44:05.160Z,19.57
2023-02-12T22:46:33.348Z,21.00
2023-02-12T22:49:01.705Z,20.30
2023-02-12T22:51:31.258Z,21.10
2023-02-12T22:53:58.892Z,19.87
2023-02-12T22:56:26.369Z,19.80
2023-02-12T22:58:58.093Z,20.43
2023-02-12T23:01:25.904Z,22.00
2023-02-12T23:03:53.298Z,19.93
2023-02-12T23:06:28.271Z,21.03
2023-02-12T23:09:02.013Z,19.13
2023-02-12T23:11:30.757Z,20.67
2023-02-12T23:13:58.117Z,20.90
2023-02-12T23:16:25.261Z,19.37
2023-02-12T23:18:56.932Z,21.77
2023-02-12T23:21:26.055Z,19.60
2023-02-12T23:23:53.348Z,19.97
2023-02-12T23:26:20.260Z,18.13
2023-02-12T23:28:47.881Z,19.27
2023-02-12T23:31:14.972Z,17.93
2023-02-12T23:33:41.950Z,17.20
2023-02-12T23:36:09.314Z,16.80
2023-02-12T23:38:36.298Z,16.33
2023-02-12T23:41:03.210Z,16.20
2023-02-12T23:43:30.547Z,16.90
2023-02-12T23:45:57.504Z,17.17
2023-02-12T23:48:24.577Z,16.40
2023-02-12T23:50:51.457Z,16.63
2023-02-12T23:53:19.416Z,15.57
2023-02-12T23:55:48.951Z,14.60
2023-02-12T23:58:15.950Z,15.70
